Time;durP1;ratioP1;P1;durP2;ratioP2;P2;SDS_P1;SDS_P2;PMS_P1;PMS_P2;Temp;Humidity;BMP_temperature;BMP_pressure;BME280_temperature;BME280_humidity;BME280_pressure;Samples;Min_cycle;Max_cycle;Signal;HPM_P1;HPM_P2
2021/12/23 00:02:44;;;;;;;36.45;19.90;;;22.30;34.30;;;;;;6162097;28;82962;-65
2021/12/23 00:05:45;;;;;;;36.97;21.35;;;22.20;34.30;;;;;;6160892;27;83070;-65
2021/12/23 00:08:45;;;;;;;40.13;21.88;;;22.30;34.40;;;;;;6172689;28;83146;-65
2021/12/23 00:11:46;;;;;;;34.90;20.42;;;22.20;34.30;;;;;;6172041;27;83033;-65
2021/12/23 00:14:49;;;;;;;38.50;21.23;;;22.20;34.10;;;;;;6170169;27;84461;-66
2021/12/23 00:17:56;;;;;;;36.85;21.00;;;22.20;34.50;;;;;;6173128;28;83405;-66
2021/12/23 00:24:16;;;;;;;34.25;20.13;;;22.20;34.40;;;;;;6159784;28;83053;-66
2021/12/23 00:27:17;;;;;;;35.75;20.15;;;22.20;34.90;;;;;;6154887;28;84273;-66
2021/12/23 00:30:17;;;;;;;34.60;19.55;;;22.20;34.20;;;;;;6166087;27;82936;-67
2021/12/23 00:33:18;;;;;;;35.72;20.70;;;22.20;34.50;;;;;;6171959;27;83320;-67
2021/12/23 00:36:18;;;;;;;36.40;20.45;;;22.20;34.10;;;;;;6159360;28;83276;-67
2021/12/23 00:39:19;;;;;;;38.50;21.13;;;22.20;34.80;;;;;;6161857;28;84053;-67
2021/12/23 00:42:19;;;;;;;42.47;22.48;;;22.20;34.70;;;;;;6157464;28;83164;-67
2021/12/23 00:45:20;;;;;;;37.22;21.35;;;22.20;35.60;;;;;;6155335;28;84090;-68
2021/12/23 00:48:20;;;;;;;38.67;21.40;;;22.20;34.90;;;;;;6156077;28;83102;-67
2021/12/23 00:51:21;;;;;;;36.80;21.17;;;22.20;34.10;;;;;;6154038;28;83247;-67
2021/12/23 00:54:22;;;;;;;38.65;21.65;;;22.20;34.60;;;;;;6169929;27;83150;-65
2021/12/23 00:57:30;;;;;;;36.28;21.55;;;22.20;34.00;;;;;;6158119;28;82865;-65
2021/12/23 01:00:30;;;;;;;37.65;21.35;;;22.20;34.60;;;;;;6155568;28;84623;-65
2021/12/23 01:03:31;;;;;;;40.35;22.60;;;22.20;34.40;;;;;;6158266;28;83010;-66
2021/12/23 01:06:31;;;;;;;36.25;20.33;;;22.10;34.50;;;;;;6163597;28;83393;-66
2021/12/23 01:09:32;;;;;;;36.10;20.63;;;22.10;34.20;;;;;;6153344;28;85673;-66
2021/12/23 01:12:40;;;;;;;40.20;21.77;;;22.20;34.10;;;;;;6160219;28;82990;-66
2021/12/23 01:16:00;;;;;;;37.40;21.50;;;22.20;34.50;;;;;;6155279;28;84088;-66
2021/12/23 01:19:03;;;;;;;38.60;21.60;;;22.10;34.60;;;;;;6156734;28;84318;-65
2021/12/23 01:22:03;;;;;;;36.00;20.58;;;22.10;34.40;;;;;;6155960;28;83127;-65
2021/12/23 01:25:04;;;;;;;38.00;20.48;;;22.10;34.20;;;;;;6163601;27;82946;-65
2021/12/23 01:28:04;;;;;;;38.80;22.10;;;22.10;34.20;;;;;;6174538;28;83159;-65
2021/12/23 01:31:05;;;;;;;36.83;21.45;;;22.10;34.40;;;;;;6160315;28;83226;-64
2021/12/23 01:34:05;;;;;;;37.60;20.60;;;22.10;34.30;;;;;;6175916;27;83558;-65
2021/12/23 01:37:06;;;;;;;35.00;19.88;;;22.10;34.00;;;;;;6176034;27;83028;-66
2021/12/23 01:40:06;;;;;;;34.45;19.73;;;22.10;34.60;;;;;;6170189;27;82919;-65
2021/12/23 01:43:07;;;;;;;34.88;20.48;;;22.10;34.40;;;;;;6158878;28;83353;-64
2021/12/23 01:46:08;;;;;;;35.65;20.27;;;22.10;34.40;;;;;;6194804;28;84280;-65
2021/12/23 01:49:08;;;;;;;31.60;18.83;;;22.10;34.70;;;;;;6158142;28;83585;-65
2021/12/23 01:52:09;;;;;;;37.97;21.17;;;22.10;34.70;;;;;;6165721;28;82734;-65
2021/12/23 01:55:09;;;;;;;35.58;19.50;;;22.10;34.80;;;;;;6190481;28;83510;-65
2021/12/23 01:58:10;;;;;;;35.88;20.13;;;22.10;34.50;;;;;;6176213;27;83088;-66
2021/12/23 02:01:10;;;;;;;37.83;20.25;;;22.00;34.90;;;;;;6174947;28;85680;-66
2021/12/23 02:04:11;;;;;;;37.53;21.42;;;22.00;34.60;;;;;;6159729;28;83896;-66
2021/12/23 02:07:11;;;;;;;37.40;20.67;;;22.00;34.80;;;;;;6164111;28;83345;-65
2021/12/23 02:10:12;;;;;;;33.38;19.95;;;22.00;35.00;;;;;;6157778;28;84038;-65
2021/12/23 02:13:12;;;;;;;35.28;19.58;;;22.00;35.50;;;;;;6161128;28;85207;-66
2021/12/23 02:16:13;;;;;;;37.67;20.27;;;22.00;34.80;;;;;;6159439;28;83015;-66
2021/12/23 02:19:13;;;;;;;34.67;20.40;;;22.00;34.50;;;;;;6158922;28;85557;-65
2021/12/23 02:22:14;;;;;;;36.88;20.45;;;22.00;35.00;;;;;;6158536;28;84118;-66
2021/12/23 02:25:14;;;;;;;37.63;20.75;;;22.00;34.60;;;;;;6175181;27;82923;-65
2021/12/23 02:28:15;;;;;;;37.53;21.15;;;22.00;34.80;;;;;;6159530;28;83302;-65
2021/12/23 02:31:16;;;;;;;33.75;19.90;;;22.00;34.80;;;;;;6175161;27;83424;-65
2021/12/23 02:34:17;;;;;;;34.65;19.95;;;22.00;34.80;;;;;;6175053;27;83118;-65
2021/12/23 02:37:18;;;;;;;34.50;19.67;;;22.00;35.00;;;;;;6172761;28;84487;-65
2021/12/23 02:40:18;;;;;;;36.05;19.90;;;22.00;34.70;;;;;;6163209;28;83298;-67
2021/12/23 02:43:19;;;;;;;38.88;20.55;;;22.00;35.40;;;;;;6165246;28;83151;-65
2021/12/23 02:46:20;;;;;;;35.80;20.83;;;22.00;35.00;;;;;;6158203;28;83217;-65
2021/12/23 02:49:20;;;;;;;36.47;19.85;;;22.00;35.30;;;;;;6157592;28;83189;-66
2021/12/23 02:52:21;;;;;;;37.30;21.20;;;22.00;35.20;;;;;;6157459;28;82898;-66
2021/12/23 02:55:21;;;;;;;40.97;21.40;;;22.00;35.00;;;;;;6163167;28;82889;-65
2021/12/23 02:58:22;;;;;;;38.38;20.92;;;22.00;35.00;;;;;;6168877;28;83315;-66
2021/12/23 03:01:22;;;;;;;35.75;20.48;;;22.00;35.00;;;;;;6163618;28;83214;-67
2021/12/23 03:04:23;;;;;;;39.03;21.23;;;22.00;34.80;;;;;;6174604;27;83278;-67
2021/12/23 03:07:23;;;;;;;37.15;19.70;;;21.90;34.30;;;;;;6170273;28;83209;-67
2021/12/23 03:10:24;;;;;;;33.38;18.67;;;22.00;34.40;;;;;;6172715;28;82993;-66
2021/12/23 03:13:24;;;;;;;34.47;20.20;;;22.00;34.50;;;;;;6168454;28;82885;-67
2021/12/23 03:16:25;;;;;;;37.08;20.45;;;22.00;33.70;;;;;;6165797;28;84013;-66
2021/12/23 03:19:25;;;;;;;34.75;20.40;;;22.10;33.50;;;;;;6166950;27;84112;-67
2021/12/23 03:22:26;;;;;;;33.03;20.15;;;22.10;32.90;;;;;;6165326;28;83190;-65
2021/12/23 03:25:26;;;;;;;37.67;21.42;;;22.20;32.40;;;;;;6166803;27;83048;-66
2021/12/23 03:28:27;;;;;;;36.75;21.73;;;22.20;32.20;;;;;;6166175;28;83232;-66
2021/12/23 03:31:27;;;;;;;36.20;21.08;;;22.30;31.80;;;;;;6162119;27;83262;-67
2021/12/23 03:34:28;;;;;;;39.08;20.92;;;22.30;31.50;;;;;;6165136;28;84318;-67
2021/12/23 03:37:28;;;;;;;35.28;20.67;;;22.40;31.40;;;;;;6165180;28;83262;-67
2021/12/23 03:40:29;;;;;;;35.72;20.77;;;22.40;31.40;;;;;;6157745;27;83435;-67
2021/12/23 03:43:29;;;;;;;37.90;21.83;;;22.40;31.30;;;;;;6156765;28;83238;-67
2021/12/23 03:46:30;;;;;;;37.75;20.80;;;22.50;31.00;;;;;;6156337;28;83903;-67
2021/12/23 03:49:30;;;;;;;34.08;20.38;;;22.50;30.80;;;;;;6158883;28;83898;-67
2021/12/23 03:52:31;;;;;;;36.10;20.85;;;22.60;31.00;;;;;;6157897;28;82968;-67
2021/12/23 03:55:31;;;;;;;37.90;21.92;;;22.60;31.00;;;;;;6170132;28;83386;-68
2021/12/23 03:58:32;;;;;;;37.08;20.67;;;22.60;31.00;;;;;;6158542;28;83295;-67
2021/12/23 04:01:32;;;;;;;36.90;20.00;;;22.70;31.10;;;;;;6158714;28;82813;-66
2021/12/23 04:04:32;;;;;;;35.42;20.08;;;22.70;31.10;;;;;;6158336;28;90315;-65
2021/12/23 04:07:33;;;;;;;34.40;19.67;;;22.70;31.20;;;;;;6156646;28;83331;-69
2021/12/23 04:10:33;;;;;;;32.97;19.70;;;22.70;31.40;;;;;;6171374;28;83686;-70
2021/12/23 04:13:34;;;;;;;32.55;17.70;;;22.70;31.50;;;;;;6173082;28;84003;-71
2021/12/23 04:16:34;;;;;;;40.47;19.55;;;22.80;31.90;;;;;;6168534;28;83302;-70
2021/12/23 04:19:35;;;;;;;35.65;19.20;;;22.80;32.20;;;;;;6148621;28;85347;-67
2021/12/23 04:22:35;;;;;;;30.75;18.38;;;22.80;32.20;;;;;;6162180;28;82766;-67
2021/12/23 04:25:36;;;;;;;33.65;18.55;;;22.80;32.40;;;;;;6161696;28;84785;-68
2021/12/23 04:28:45;;;;;;;31.55;18.67;;;22.90;32.50;;;;;;6163510;28;84106;-68
2021/12/23 04:31:45;;;;;;;32.85;17.80;;;22.90;32.50;;;;;;6159902;28;83687;-67
2021/12/23 04:34:46;;;;;;;34.63;19.17;;;22.90;32.10;;;;;;6163417;28;86307;-68
2021/12/23 04:37:46;;;;;;;29.27;17.67;;;22.90;31.80;;;;;;6164005;28;83911;-68
2021/12/23 04:40:47;;;;;;;32.33;18.27;;;22.90;31.70;;;;;;6163965;28;83554;-68
2021/12/23 04:43:47;;;;;;;34.88;19.90;;;22.90;31.40;;;;;;6167229;28;84772;-68
2021/12/23 04:46:48;;;;;;;33.22;18.55;;;22.90;31.30;;;;;;6165886;28;85681;-66
2021/12/23 04:49:48;;;;;;;39.90;19.85;;;22.90;31.10;;;;;;6162349;28;83753;-65
2021/12/23 04:52:49;;;;;;;35.97;19.02;;;22.90;31.10;;;;;;6171934;28;85802;-68
2021/12/23 04:55:49;;;;;;;31.38;18.33;;;22.90;31.30;;;;;;6172979;28;83177;-70
2021/12/23 04:58:50;;;;;;;24.20;15.05;;;22.90;31.40;;;;;;6158614;28;83075;-70
2021/12/23 05:01:51;;;;;;;23.98;13.57;;;22.90;34.10;;;;;;6164480;28;82862;-70
2021/12/23 05:04:52;;;;;;;18.05;11.43;;;22.90;35.60;;;;;;6160593;28;83741;-70
2021/12/23 05:07:52;;;;;;;19.38;11.07;;;22.80;36.60;;;;;;6160595;28;83644;-70
2021/12/23 05:10:53;;;;;;;17.60;11.10;;;22.80;37.40;;;;;;6159312;27;88837;-71
2021/12/23 05:13:53;;;;;;;18.67;10.32;;;22.80;38.60;;;;;;6160179;28;83364;-70
2021/12/23 05:16:54;;;;;;;15.60;9.82;;;22.80;39.20;;;;;;6155117;28;83153;-69
2021/12/23 05:19:54;;;;;;;15.70;9.43;;;22.80;39.30;;;;;;6161651;28;84031;-68
2021/12/23 05:22:55;;;;;;;17.75;9.95;;;22.80;39.50;;;;;;6162698;28;80358;-68
2021/12/23 05:25:55;;;;;;;16.98;10.45;;;22.80;39.60;;;;;;6162746;28;80680;-69
2021/12/23 05:28:55;;;;;;;16.33;10.43;;;22.80;39.70;;;;;;6158885;28;82834;-69
2021/12/23 05:31:56;;;;;;;18.65;11.45;;;22.80;39.70;;;;;;6160362;28;83657;-69
2021/12/23 05:34:56;;;;;;;27.63;12.77;;;22.80;39.90;;;;;;6159048;28;84065;-68
2021/12/23 05:37:57;;;;;;;22.73;12.43;;;22.80;39.90;;;;;;6160221;28;83520;-68
2021/12/23 05:40:57;;;;;;;24.15;13.68;;;22.80;40.80;;;;;;6159058;28;82893;-68
2021/12/23 05:43:58;;;;;;;58.30;27.05;;;22.80;40.40;;;;;;6158329;28;83926;-72
2021/12/23 05:46:58;;;;;;;78.28;38.88;;;22.70;40.80;;;;;;6152430;28;82974;-69
2021/12/23 05:49:59;;;;;;;193.45;91.30;;;22.70;41.20;;;;;;6152094;28;84004;-68
2021/12/23 05:52:59;;;;;;;240.40;115.75;;;22.50;41.70;;;;;;6153297;28;83761;-69
2021/12/23 05:56:00;;;;;;;183.82;89.10;;;22.50;42.50;;;;;;6155041;28;86848;-72
2021/12/23 05:59:00;;;;;;;159.20;76.25;;;22.50;42.20;;;;;;6156480;28;84221;-70
2021/12/23 06:02:01;;;;;;;250.40;118.10;;;22.60;41.70;;;;;;6156637;28;84598;-69
2021/12/23 06:05:02;;;;;;;334.10;153.82;;;22.60;41.70;;;;;;6154632;28;85746;-70
2021/12/23 06:08:02;;;;;;;351.35;159.50;;;22.60;41.20;;;;;;6155891;28;86668;-69
2021/12/23 06:11:03;;;;;;;314.60;141.32;;;22.70;41.50;;;;;;6144072;28;85433;-69
2021/12/23 06:14:03;;;;;;;239.98;108.78;;;22.70;41.50;;;;;;6156886;28;85834;-68
2021/12/23 06:17:04;;;;;;;177.23;83.28;;;22.70;41.40;;;;;;6156518;28;86945;-69
2021/12/23 06:20:04;;;;;;;182.30;85.57;;;22.70;41.10;;;;;;6157799;28;85819;-70
2021/12/23 06:23:05;;;;;;;233.82;110.53;;;22.70;41.00;;;;;;6157538;28;83254;-68
2021/12/23 06:26:06;;;;;;;357.00;162.82;;;22.60;41.10;;;;;;6153635;28;85709;-71
2021/12/23 06:29:06;;;;;;;389.38;168.18;;;22.60;41.70;;;;;;6154440;28;85298;-68
2021/12/23 06:32:07;;;;;;;391.33;175.60;;;22.50;42.20;;;;;;6154848;28;86650;-66
2021/12/23 06:35:07;;;;;;;368.60;164.57;;;22.50;41.50;;;;;;6154961;28;85525;-69
2021/12/23 06:38:08;;;;;;;330.58;142.55;;;22.50;40.80;;;;;;6152899;28;91007;-69
2021/12/23 06:41:08;;;;;;;281.55;126.60;;;22.50;40.60;;;;;;6155477;28;85625;-68
2021/12/23 06:44:09;;;;;;;243.85;109.22;;;22.40;40.20;;;;;;6153122;28;85537;-70
2021/12/23 06:47:09;;;;;;;223.65;101.22;;;22.40;40.50;;;;;;6154371;28;85674;-69
2021/12/23 06:50:10;;;;;;;187.77;87.47;;;22.40;40.70;;;;;;6154530;28;85894;-68
2021/12/23 06:53:10;;;;;;;163.82;74.63;;;22.40;41.20;;;;;;6156986;28;85390;-71
2021/12/23 06:56:13;;;;;;;149.02;72.10;;;22.40;41.40;;;;;;6155555;28;86080;-71
2021/12/23 06:59:16;;;;;;;133.23;63.92;;;22.40;41.60;;;;;;6152463;28;83231;-71
2021/12/23 07:02:17;;;;;;;132.23;61.38;;;22.40;41.70;;;;;;6151572;28;83144;-70
2021/12/23 07:05:18;;;;;;;123.47;57.58;;;22.40;41.10;;;;;;6151219;28;84092;-70
2021/12/23 07:08:29;;;;;;;116.68;52.55;;;22.40;41.50;;;;;;6151367;28;83228;-69
2021/12/23 07:11:30;;;;;;;102.93;48.83;;;22.40;41.00;;;;;;6157083;28;88280;-72
2021/12/23 07:14:30;;;;;;;93.07;45.75;;;22.40;41.00;;;;;;6148962;28;85058;-72
2021/12/23 07:17:31;;;;;;;92.65;44.58;;;22.40;41.40;;;;;;6151045;28;83707;-70
2021/12/23 07:20:31;;;;;;;98.95;44.50;;;22.40;40.90;;;;;;6146137;28;83713;-71
2021/12/23 07:23:32;;;;;;;86.40;40.92;;;22.30;41.20;;;;;;6141160;28;83255;-70
2021/12/23 07:26:32;;;;;;;82.97;41.53;;;22.40;41.50;;;;;;6146466;28;84153;-72
2021/12/23 07:29:33;;;;;;;75.53;37.45;;;22.40;41.20;;;;;;6156155;28;84750;-69
2021/12/23 07:32:33;;;;;;;75.07;35.70;;;22.40;41.70;;;;;;6149635;28;83362;-72
2021/12/23 07:35:34;;;;;;;73.22;37.95;;;22.40;41.50;;;;;;6151607;28;83077;-71
2021/12/23 07:38:34;;;;;;;72.75;35.50;;;22.40;41.20;;;;;;6145222;28;83615;-70
2021/12/23 07:41:35;;;;;;;69.30;35.05;;;22.40;41.00;;;;;;6150263;28;83195;-71
2021/12/23 07:44:35;;;;;;;63.58;32.58;;;22.40;40.80;;;;;;6153732;28;84287;-69
2021/12/23 07:47:36;;;;;;;67.40;33.75;;;22.40;40.90;;;;;;6148965;28;84138;-69
2021/12/23 07:50:37;;;;;;;57.38;30.90;;;22.40;41.10;;;;;;6153704;28;84106;-70
2021/12/23 07:53:37;;;;;;;51.83;30.90;;;22.40;40.80;;;;;;6153213;28;84076;-70
2021/12/23 07:56:38;;;;;;;64.78;30.70;;;22.40;40.90;;;;;;6154899;28;89781;-71
2021/12/23 07:59:38;;;;;;;53.60;30.70;;;22.40;40.80;;;;;;6156289;28;83370;-70
2021/12/23 08:02:39;;;;;;;54.15;28.42;;;22.50;40.90;;;;;;6153567;28;83427;-71
2021/12/23 08:05:41;;;;;;;54.60;28.58;;;22.50;41.20;;;;;;6154038;28;83610;-69
2021/12/23 08:08:41;;;;;;;50.65;27.27;;;22.50;41.30;;;;;;6158276;28;83943;-73
2021/12/23 08:11:42;;;;;;;51.00;26.08;;;22.60;41.40;;;;;;6163020;28;84267;-68
2021/12/23 08:14:42;;;;;;;50.88;27.05;;;22.50;41.40;;;;;;6155268;28;82884;-70
2021/12/23 08:17:43;;;;;;;46.28;25.70;;;22.50;40.80;;;;;;6155558;28;84139;-69
2021/12/23 08:20:43;;;;;;;44.67;24.50;;;22.50;41.60;;;;;;6156818;28;83391;-70
2021/12/23 08:23:45;;;;;;;47.40;24.55;;;22.60;41.70;;;;;;6153036;28;83436;-67
2021/12/23 08:26:51;;;;;;;41.50;23.13;;;22.60;41.60;;;;;;6155554;28;83330;-69
2021/12/23 08:29:52;;;;;;;40.13;22.45;;;22.60;41.50;;;;;;6152222;28;83285;-68
2021/12/23 08:32:52;;;;;;;42.13;22.75;;;22.70;42.00;;;;;;6153210;28;83187;-67
2021/12/23 08:35:53;;;;;;;38.28;22.63;;;22.70;40.80;;;;;;6154558;28;84202;-68
2021/12/23 08:38:53;;;;;;;41.13;22.92;;;22.80;40.90;;;;;;6154083;28;83993;-73
2021/12/23 08:41:53;;;;;;;40.42;20.08;;;22.80;41.20;;;;;;6150159;28;84126;-71
2021/12/23 08:44:54;;;;;;;37.30;21.60;;;23.00;41.20;;;;;;6154609;28;84533;-67
2021/12/23 08:47:55;;;;;;;36.75;20.35;;;23.00;40.60;;;;;;6152633;28;82863;-67
2021/12/23 08:50:55;;;;;;;35.80;20.38;;;23.10;40.30;;;;;;6153096;28;84075;-67
2021/12/23 08:53:55;;;;;;;37.83;22.02;;;23.20;40.50;;;;;;6154854;28;82897;-68
2021/12/23 08:56:56;;;;;;;38.75;22.08;;;23.20;40.30;;;;;;6150253;28;83433;-69
2021/12/23 08:59:57;;;;;;;44.97;24.50;;;23.30;40.10;;;;;;6154876;28;83256;-68
2021/12/23 09:02:57;;;;;;;40.22;23.20;;;23.40;40.20;;;;;;6151564;28;83496;-68
2021/12/23 09:05:58;;;;;;;42.92;21.92;;;23.40;40.30;;;;;;6154133;28;83267;-68
2021/12/23 09:08:58;;;;;;;38.92;22.70;;;23.40;40.40;;;;;;6156384;28;83366;-68
2021/12/23 09:11:59;;;;;;;31.77;19.27;;;23.40;40.00;;;;;;6150640;28;83524;-69
2021/12/23 09:14:59;;;;;;;37.42;19.30;;;23.40;39.70;;;;;;6155138;28;83204;-68
2021/12/23 09:18:00;;;;;;;29.90;17.83;;;23.40;40.10;;;;;;6155231;28;82951;-68
2021/12/23 09:21:00;;;;;;;29.25;16.55;;;23.40;40.00;;;;;;6153232;28;82983;-69
2021/12/23 09:24:02;;;;;;;28.52;15.95;;;23.40;40.10;;;;;;6152470;28;83898;-67
2021/12/23 09:27:16;;;;;;;28.23;16.00;;;23.40;40.10;;;;;;6152941;28;84292;-67
2021/12/23 09:33:36;;;;;;;22.30;13.43;;;23.40;40.00;;;;;;6152237;28;83218;-67
2021/12/23 09:36:36;;;;;;;23.85;12.05;;;23.30;40.00;;;;;;6152562;28;83318;-67
2021/12/23 09:39:37;;;;;;;19.25;11.48;;;23.40;40.40;;;;;;6155498;28;83253;-67
2021/12/23 09:42:37;;;;;;;16.80;9.85;;;23.30;40.00;;;;;;6154672;28;83161;-67
2021/12/23 09:45:38;;;;;;;20.50;11.35;;;23.40;40.60;;;;;;6161674;28;83084;-67
2021/12/23 09:48:38;;;;;;;14.88;8.68;;;23.40;40.50;;;;;;6160728;28;83317;-66
2021/12/23 09:51:39;;;;;;;13.73;8.75;;;23.40;40.60;;;;;;6166871;28;83708;-67
2021/12/23 09:54:39;;;;;;;15.85;8.63;;;23.30;40.70;;;;;;6164235;28;80689;-67
2021/12/23 09:57:40;;;;;;;17.33;7.18;;;23.30;40.40;;;;;;6155640;28;80808;-68
2021/12/23 10:00:45;;;;;;;12.70;7.32;;;23.30;41.00;;;;;;6161287;28;80579;-68
2021/12/23 10:03:45;;;;;;;15.80;6.60;;;23.30;40.50;;;;;;6161123;28;81728;-68
2021/12/23 10:06:47;;;;;;;13.02;6.72;;;23.40;41.00;;;;;;6162149;28;80942;-68
2021/12/23 10:10:00;;;;;;;11.00;5.85;;;23.30;40.80;;;;;;6161640;28;80969;-68
2021/12/23 10:39:08;;;;;;;10.10;5.03;;;23.30;41.80;;;;;;6147255;28;80419;-68
2021/12/23 10:42:09;;;;;;;10.48;5.85;;;23.30;42.60;;;;;;6163357;28;80676;-67
2021/12/23 10:45:10;;;;;;;10.88;5.82;;;23.20;41.90;;;;;;6164269;28;80343;-68
2021/12/23 10:48:13;;;;;;;10.75;5.03;;;23.20;42.00;;;;;;6161739;28;80784;-68
2021/12/23 10:51:18;;;;;;;10.05;6.05;;;23.20;42.00;;;;;;6162312;28;81598;-68
2021/12/23 10:57:57;;;;;;;10.88;5.95;;;23.20;42.40;;;;;;6159854;28;80740;-68
2021/12/23 11:01:00;;;;;;;13.85;6.82;;;23.20;44.20;;;;;;6159699;28;86835;-68
2021/12/23 11:04:01;;;;;;;20.52;7.32;;;23.10;46.00;;;;;;6159771;28;81188;-68
2021/12/23 11:07:02;;;;;;;16.65;7.40;;;23.20;46.90;;;;;;6163924;28;81104;-67
2021/12/23 11:10:17;;;;;;;13.50;6.97;;;23.20;47.40;;;;;;6161539;28;80577;-67
2021/12/23 11:46:06;;;;;;;12.90;6.28;;;22.90;45.20;;;;;;6164859;28;80129;-66
2021/12/23 11:49:09;;;;;;;17.55;6.13;;;22.90;45.00;;;;;;6161692;28;80560;-68
2021/12/23 11:52:09;;;;;;;18.73;6.18;;;22.80;44.50;;;;;;6160133;28;80532;-68
2021/12/23 11:55:10;;;;;;;14.43;6.43;;;22.80;44.90;;;;;;6159227;28;80483;-69
2021/12/23 11:58:10;;;;;;;18.73;5.72;;;22.80;45.00;;;;;;6160837;28;80957;-68
2021/12/23 12:01:11;;;;;;;14.05;5.63;;;22.80;44.70;;;;;;6159180;28;80612;-68
2021/12/23 12:04:13;;;;;;;11.80;5.53;;;22.80;44.30;;;;;;6142875;28;81475;-69
2021/12/23 12:07:14;;;;;;;15.52;6.32;;;22.80;44.60;;;;;;6156553;28;82515;-69
2021/12/23 12:10:14;;;;;;;14.82;5.95;;;22.80;44.00;;;;;;6155836;28;81711;-68
2021/12/23 12:13:16;;;;;;;12.75;6.15;;;22.80;44.10;;;;;;6160619;28;80785;-72
2021/12/23 12:16:16;;;;;;;14.90;5.97;;;22.70;44.00;;;;;;6157507;28;80295;-70
2021/12/23 12:19:17;;;;;;;13.95;5.60;;;22.70;43.40;;;;;;6158777;28;80376;-69
2021/12/23 12:22:17;;;;;;;13.70;5.10;;;22.70;43.90;;;;;;6156801;28;81664;-69
2021/12/23 12:25:18;;;;;;;11.38;5.65;;;22.70;44.00;;;;;;6158869;28;82587;-69
2021/12/23 12:28:19;;;;;;;11.07;5.35;;;22.70;43.80;;;;;;6168734;28;81762;-69
2021/12/23 12:31:20;;;;;;;11.27;4.97;;;22.70;43.40;;;;;;6159484;28;81549;-68
2021/12/23 12:34:20;;;;;;;14.73;5.13;;;22.70;43.60;;;;;;6158089;28;82150;-70
2021/12/23 12:37:21;;;;;;;7.80;4.75;;;22.70;44.00;;;;;;6142403;28;81638;-67
2021/12/23 12:40:21;;;;;;;8.65;4.47;;;22.70;43.70;;;;;;6158303;28;80423;-71
2021/12/23 12:43:22;;;;;;;9.00;4.88;;;22.80;43.70;;;;;;6158394;28;81431;-70
2021/12/23 12:46:25;;;;;;;8.05;4.28;;;22.80;43.50;;;;;;6157590;28;81018;-69
2021/12/23 12:49:30;;;;;;;8.50;4.65;;;22.80;43.60;;;;;;6156429;28;82821;-70
2021/12/23 12:52:31;;;;;;;11.05;4.68;;;22.90;43.50;;;;;;6157017;28;80805;-65
2021/12/23 12:55:33;;;;;;;7.57;4.85;;;22.90;43.00;;;;;;6156952;28;80983;-71
2021/12/23 12:58:33;;;;;;;7.40;4.63;;;22.90;43.40;;;;;;6157113;28;81152;-67
2021/12/23 13:01:34;;;;;;;7.65;4.30;;;23.00;43.70;;;;;;6160879;28;81891;-67
2021/12/23 13:04:36;;;;;;;10.20;4.63;;;23.00;43.90;;;;;;6171781;28;81331;-68
2021/12/23 13:07:45;;;;;;;10.10;4.45;;;23.00;44.00;;;;;;6157195;28;83150;-67
2021/12/23 13:10:54;;;;;;;6.15;3.88;;;23.10;44.40;;;;;;6156333;28;83133;-67
2021/12/23 13:14:15;;;;;;;7.47;3.65;;;23.10;44.90;;;;;;6152357;28;80138;-67
2021/12/23 13:17:33;;;;;;;5.40;3.67;;;23.10;45.20;;;;;;6160222;28;85097;-67
2021/12/23 13:20:35;;;;;;;8.48;3.97;;;23.20;45.00;;;;;;6177007;28;81227;-70
2021/12/23 13:23:40;;;;;;;9.35;3.92;;;23.10;44.90;;;;;;6162810;28;80551;-69
2021/12/23 13:26:41;;;;;;;8.00;4.30;;;23.10;44.60;;;;;;6162115;28;80361;-68
2021/12/23 13:29:41;;;;;;;5.28;3.55;;;23.10;44.40;;;;;;6161852;27;80166;-68
2021/12/23 13:32:42;;;;;;;5.90;3.70;;;23.10;44.40;;;;;;6161864;28;80643;-68
2021/12/23 13:35:42;;;;;;;6.55;3.65;;;23.10;44.20;;;;;;6161314;28;80888;-68
2021/12/23 13:38:44;;;;;;;6.40;4.03;;;23.10;44.50;;;;;;6197645;28;88126;-70
2021/12/23 13:41:45;;;;;;;4.90;3.60;;;23.10;44.60;;;;;;6160835;28;80735;-69
2021/12/23 13:44:46;;;;;;;8.45;4.22;;;23.10;44.40;;;;;;6161410;28;80596;-71
2021/12/23 13:47:47;;;;;;;7.57;3.42;;;23.10;44.20;;;;;;6158242;28;82506;-69
2021/12/23 13:50:47;;;;;;;5.72;4.13;;;23.10;44.20;;;;;;6159400;28;81490;-70
2021/12/23 13:53:48;;;;;;;9.27;4.68;;;23.00;44.30;;;;;;6169317;28;83529;-69
2021/12/23 13:56:48;;;;;;;6.50;4.20;;;23.10;44.70;;;;;;6164344;28;80409;-69
2021/12/23 13:59:49;;;;;;;8.57;4.32;;;23.00;44.20;;;;;;6161942;28;80095;-69
2021/12/23 14:02:52;;;;;;;11.95;4.00;;;23.00;44.10;;;;;;6164593;28;80935;-68
2021/12/23 14:05:52;;;;;;;7.65;3.90;;;23.00;44.20;;;;;;6160810;28;81300;-68
2021/12/23 14:08:53;;;;;;;8.75;4.28;;;23.00;44.60;;;;;;6161490;28;81103;-69
2021/12/23 14:11:53;;;;;;;11.80;4.30;;;23.00;44.10;;;;;;6160329;28;82058;-68
2021/12/23 14:14:54;;;;;;;6.97;4.05;;;23.00;44.50;;;;;;6166599;28;80618;-68
2021/12/23 14:24:41;;;;;;;11.05;5.45;;;23.00;44.80;;;;;;6160621;28;81811;-69
2021/12/23 14:27:42;;;;;;;8.20;4.88;;;23.00;45.00;;;;;;6161503;28;80003;-68
2021/12/23 14:30:43;;;;;;;11.57;5.00;;;23.00;44.80;;;;;;6160381;28;88431;-68
2021/12/23 14:33:43;;;;;;;9.50;5.03;;;22.90;45.30;;;;;;6161437;28;81370;-68
2021/12/23 14:36:44;;;;;;;11.32;4.97;;;23.00;45.40;;;;;;6160366;28;81425;-68
2021/12/23 14:39:44;;;;;;;9.45;5.07;;;23.00;45.30;;;;;;6162009;28;80560;-73
2021/12/23 14:42:45;;;;;;;12.68;5.00;;;23.00;45.30;;;;;;6161150;28;81065;-73
2021/12/23 14:45:49;;;;;;;14.45;5.28;;;22.90;45.20;;;;;;6160271;28;80427;-69
2021/12/23 14:48:58;;;;;;;11.02;5.78;;;22.90;45.10;;;;;;6157171;28;80378;-69
2021/12/23 14:51:58;;;;;;;7.07;5.25;;;22.90;45.00;;;;;;6161662;28;80841;-71
2021/12/23 14:54:59;;;;;;;11.07;5.30;;;23.00;44.80;;;;;;6161331;28;80917;-70
2021/12/23 14:57:59;;;;;;;7.38;5.22;;;22.90;44.30;;;;;;6165915;28;80680;-68
2021/12/23 15:01:00;;;;;;;9.00;4.97;;;22.90;44.10;;;;;;6166812;28;80938;-68
2021/12/23 15:04:00;;;;;;;9.55;5.15;;;23.00;44.20;;;;;;6160775;28;82969;-68
2021/12/23 15:07:01;;;;;;;10.02;5.65;;;23.00;43.90;;;;;;6159753;28;80513;-68
2021/12/23 15:10:01;;;;;;;9.95;5.38;;;23.00;43.60;;;;;;6158759;28;81015;-68
2021/12/23 15:13:02;;;;;;;10.52;5.38;;;23.00;43.50;;;;;;6156913;28;81592;-67
2021/12/23 15:16:02;;;;;;;9.10;5.50;;;23.00;43.50;;;;;;6157836;28;80416;-67
2021/12/23 15:19:34;;;;;;;10.20;5.85;;;23.00;43.40;;;;;;6155046;28;81058;-73
2021/12/23 15:22:36;;;;;;;9.15;5.38;;;22.90;42.80;;;;;;6160738;28;80680;-72
2021/12/23 15:25:37;;;;;;;8.93;5.35;;;22.90;43.00;;;;;;6156615;28;82949;-72
2021/12/23 15:28:37;;;;;;;8.75;5.57;;;22.80;43.00;;;;;;6157795;28;80728;-71
2021/12/23 15:31:38;;;;;;;9.27;4.97;;;22.80;43.10;;;;;;6151439;28;80439;-72
2021/12/23 15:34:46;;;;;;;9.18;5.28;;;22.80;42.80;;;;;;6150138;28;81029;-71
2021/12/23 15:37:46;;;;;;;8.25;4.60;;;22.80;43.70;;;;;;6159654;28;80689;-72
2021/12/23 15:40:47;;;;;;;10.25;5.43;;;22.80;43.90;;;;;;6159776;28;81131;-67
2021/12/23 15:43:47;;;;;;;7.05;4.60;;;22.70;43.90;;;;;;6155384;28;80442;-69
2021/12/23 15:46:48;;;;;;;7.30;5.10;;;22.70;43.70;;;;;;6154821;28;80874;-67
2021/12/23 15:49:48;;;;;;;7.97;4.53;;;22.80;44.00;;;;;;6160283;28;80695;-70
2021/12/23 15:52:50;;;;;;;7.18;4.50;;;22.80;44.40;;;;;;6158095;28;80966;-68
2021/12/23 15:55:50;;;;;;;6.40;4.38;;;22.80;44.70;;;;;;6158706;28;81883;-68
2021/12/23 15:58:51;;;;;;;9.35;4.68;;;22.80;44.40;;;;;;6155587;28;80856;-66
2021/12/23 16:01:51;;;;;;;6.78;4.22;;;22.80;44.50;;;;;;6157147;28;81109;-70
2021/12/23 16:08:18;;;;;;;56.45;26.25;;;22.80;44.70;;;;;;6136383;28;80514;-68
2021/12/23 16:11:19;;;;;;;142.80;67.20;;;22.70;44.30;;;;;;6155195;28;83030;-67
2021/12/23 16:14:24;;;;;;;241.73;111.70;;;22.60;45.00;;;;;;6155572;28;83518;-69
2021/12/23 16:17:25;;;;;;;236.97;112.17;;;22.60;44.60;;;;;;6148714;28;88421;-67
2021/12/23 16:20:25;;;;;;;227.95;109.35;;;22.50;44.80;;;;;;6160041;28;86405;-67
2021/12/23 16:23:26;;;;;;;164.43;77.97;;;22.50;44.50;;;;;;6156776;28;85821;-68
2021/12/23 16:26:26;;;;;;;152.07;69.15;;;22.60;43.70;;;;;;6154994;28;85570;-67
2021/12/23 16:29:27;;;;;;;204.50;95.68;;;22.70;43.90;;;;;;6152790;28;83637;-67
2021/12/23 16:32:27;;;;;;;252.82;120.40;;;22.70;43.70;;;;;;6154311;28;84038;-68
2021/12/23 16:35:28;;;;;;;287.98;140.60;;;22.80;43.50;;;;;;6150364;28;85807;-67
2021/12/23 16:38:30;;;;;;;342.08;160.43;;;22.80;43.20;;;;;;6150137;28;89925;-67
2021/12/23 16:41:31;;;;;;;314.58;152.25;;;22.80;43.20;;;;;;6144199;28;85834;-68
2021/12/23 16:44:31;;;;;;;272.10;125.00;;;22.80;43.30;;;;;;6154407;28;86579;-68